Time;durP1;ratioP1;P1;durP2;ratioP2;P2;SDS_P1;SDS_P2;PMS_P1;PMS_P2;Temp;Humidity;BMP_temperature;BMP_pressure;BME280_temperature;BME280_humidity;BME280_pressure;Samples;Min_cycle;Max_cycle;Signal;HPM_P1;HPM_P2
2021/09/02 00:02:29;;;;;;;21.15;8.25;;;;;;;15.29;100.00;102760.34;5204080;28;20025;-81
2021/09/02 00:04:59;;;;;;;16.48;7.22;;;;;;;15.25;100.00;102770.59;5203808;28;20026;-82
2021/09/02 00:07:30;;;;;;;23.17;8.63;;;;;;;15.20;100.00;102766.63;5203945;28;20048;-81
2021/09/02 00:10:00;;;;;;;16.52;7.45;;;;;;;15.18;100.00;102768.66;5203539;28;20025;-82
2021/09/02 00:12:31;;;;;;;16.67;7.22;;;;;;;15.15;100.00;102767.09;5203336;28;20116;-81
2021/09/02 00:15:02;;;;;;;15.45;7.45;;;;;;;15.12;100.00;102771.97;5203678;28;20471;-81
2021/09/02 00:17:33;;;;;;;16.05;7.00;;;;;;;15.08;100.00;102765.16;5192213;28;20053;-82
2021/09/02 00:20:04;;;;;;;16.85;7.30;;;;;;;15.07;100.00;102769.69;5183829;28;20398;-81
2021/09/02 00:22:35;;;;;;;21.70;8.13;;;;;;;15.07;100.00;102764.28;5203456;28;20095;-81
2021/09/02 00:25:06;;;;;;;19.60;8.02;;;;;;;15.04;100.00;102761.88;5202692;28;20026;-82
2021/09/02 00:27:37;;;;;;;18.02;7.90;;;;;;;15.02;100.00;102772.84;5203528;28;20032;-81
2021/09/02 00:30:08;;;;;;;21.10;8.35;;;;;;;14.98;100.00;102770.59;5194836;28;20022;-81
2021/09/02 00:32:39;;;;;;;16.73;7.85;;;;;;;14.95;100.00;102763.63;5198654;28;20119;-83
2021/09/02 00:35:10;;;;;;;18.02;7.70;;;;;;;14.92;100.00;102771.19;5207054;28;20492;-82
2021/09/02 00:37:40;;;;;;;17.23;8.02;;;;;;;14.88;100.00;102769.78;5206893;28;20072;-82
2021/09/02 00:40:11;;;;;;;20.83;8.20;;;;;;;14.89;100.00;102774.19;5206493;28;20160;-82
2021/09/02 00:42:41;;;;;;;20.80;8.45;;;;;;;14.88;100.00;102767.06;5206369;28;20040;-82
2021/09/02 00:45:12;;;;;;;21.67;8.45;;;;;;;14.87;100.00;102768.94;5207222;28;20029;-81
2021/09/02 00:47:42;;;;;;;32.45;9.45;;;;;;;14.88;100.00;102767.06;5206813;28;20026;-82
2021/09/02 00:50:13;;;;;;;15.57;7.63;;;;;;;14.86;100.00;102766.34;5206391;28;20398;-82
2021/09/02 00:52:44;;;;;;;20.23;8.02;;;;;;;14.84;100.00;102765.66;5208029;28;20034;-82
2021/09/02 00:55:14;;;;;;;24.67;8.82;;;;;;;14.84;100.00;102763.81;5213056;28;20021;-82
2021/09/02 00:57:45;;;;;;;14.63;8.27;;;;;;;14.85;100.00;102759.25;5205813;28;20024;-83
2021/09/02 01:00:16;;;;;;;19.95;9.18;;;;;;;14.81;100.00;102755.13;5216937;28;20383;-81
2021/09/02 01:02:47;;;;;;;17.98;8.88;;;;;;;14.80;100.00;102753.44;5214653;28;20033;-82
2021/09/02 01:05:19;;;;;;;21.95;9.63;;;;;;;14.80;100.00;102756.13;5203683;28;20364;-81
2021/09/02 01:07:50;;;;;;;21.65;8.98;;;;;;;14.77;100.00;102758.16;5203809;28;20105;-82
2021/09/02 01:10:20;;;;;;;19.33;9.02;;;;;;;14.77;100.00;102760.00;5185693;28;20052;-82
2021/09/02 01:13:05;;;;;;;19.13;9.20;;;;;;;14.77;100.00;102757.31;5203524;28;20106;-81
2021/09/02 01:15:50;;;;;;;26.52;8.88;;;;;;;14.76;100.00;102758.31;5203484;28;20362;-83
2021/09/02 01:18:21;;;;;;;21.60;8.10;;;;;;;14.75;100.00;102749.31;5203099;28;20021;-82
2021/09/02 01:20:52;;;;;;;18.67;9.15;;;;;;;14.75;100.00;102743.06;5202794;28;20030;-81
2021/09/02 01:23:37;;;;;;;16.33;8.05;;;;;;;14.73;100.00;102747.78;5190731;28;20037;-81
2021/09/02 01:26:19;;;;;;;22.02;9.73;;;;;;;14.80;100.00;102745.34;5202609;28;20442;-81
2021/09/02 01:28:50;;;;;;;27.17;9.60;;;;;;;14.77;100.00;102741.94;5203255;28;20053;-81
2021/09/02 01:31:21;;;;;;;23.52;10.00;;;;;;;14.75;100.00;102735.81;5202731;28;20076;-82
2021/09/02 01:33:51;;;;;;;23.63;10.15;;;;;;;14.73;100.00;102745.94;5184575;28;20021;-82
2021/09/02 01:36:22;;;;;;;19.35;9.00;;;;;;;14.67;100.00;102743.81;5201613;28;20033;-81
2021/09/02 01:38:52;;;;;;;29.23;10.98;;;;;;;14.68;100.00;102753.63;5184990;28;20074;-82
2021/09/02 01:41:23;;;;;;;23.92;10.25;;;;;;;14.67;100.00;102751.09;5184841;28;20321;-81
2021/09/02 01:43:53;;;;;;;22.65;9.75;;;;;;;14.66;100.00;102750.22;5189711;28;20403;-83
2021/09/02 01:46:24;;;;;;;21.73;9.90;;;;;;;14.68;100.00;102750.06;5202223;28;20026;-81
2021/09/02 01:48:55;;;;;;;20.35;8.32;;;;;;;14.63;100.00;102747.81;5202340;28;20051;-82
2021/09/02 01:51:26;;;;;;;16.95;8.57;;;;;;;14.64;100.00;102748.66;5201783;28;20029;-81
2021/09/02 01:54:01;;;;;;;29.50;9.50;;;;;;;14.69;100.00;102758.03;5201914;28;20052;-81
2021/09/02 01:56:32;;;;;;;20.38;10.40;;;;;;;14.69;100.00;102754.47;5201884;28;20025;-81
2021/09/02 01:59:03;;;;;;;25.35;10.68;;;;;;;14.67;100.00;102753.78;5201263;28;20048;-82
2021/09/02 02:01:33;;;;;;;29.30;10.25;;;;;;;14.66;100.00;102744.84;5201647;28;20529;-82
2021/09/02 02:04:04;;;;;;;25.40;10.10;;;;;;;14.66;100.00;102746.66;5190392;28;20475;-82
2021/09/02 02:06:35;;;;;;;23.05;9.75;;;;;;;14.65;100.00;102747.66;5185920;28;20108;-82
2021/09/02 02:09:05;;;;;;;20.65;10.20;;;;;;;14.75;100.00;102743.06;5203316;28;20693;-81
2021/09/02 02:11:36;;;;;;;29.48;11.63;;;;;;;14.73;100.00;102743.22;5185929;28;20048;-83
2021/09/02 02:14:07;;;;;;;35.95;13.90;;;;;;;14.79;100.00;102735.53;5203805;28;20124;-82
2021/09/02 02:16:38;;;;;;;34.45;13.20;;;;;;;14.72;100.00;102738.84;5182510;28;20307;-83
2021/09/02 02:19:08;;;;;;;32.97;11.65;;;;;;;14.68;100.00;102739.28;5194279;28;20025;-83
2021/09/02 02:21:39;;;;;;;27.80;10.98;;;;;;;14.66;100.00;102731.31;5203816;28;20034;-82
2021/09/02 02:24:09;;;;;;;26.13;9.65;;;;;;;14.73;100.00;102729.72;5203823;28;20045;-82
2021/09/02 02:26:40;;;;;;;25.67;11.20;;;;;;;14.68;100.00;102723.91;5190393;28;20025;-83
2021/09/02 02:29:11;;;;;;;23.55;10.32;;;;;;;14.64;100.00;102730.59;5203046;28;20026;-82
2021/09/02 02:31:41;;;;;;;21.20;10.20;;;;;;;14.73;100.00;102728.88;5203295;28;20082;-81
2021/09/02 02:34:12;;;;;;;19.10;9.25;;;;;;;14.73;100.00;102729.72;5184810;28;20025;-83
2021/09/02 02:36:43;;;;;;;24.55;10.57;;;;;;;14.74;100.00;102728.72;5203247;28;20018;-82
2021/09/02 02:39:14;;;;;;;22.15;9.32;;;;;;;14.69;100.00;102730.16;5203989;28;20029;-82
2021/09/02 02:41:44;;;;;;;24.83;9.68;;;;;;;14.69;100.00;102719.34;5203748;28;20448;-82
2021/09/02 02:44:15;;;;;;;29.10;10.57;;;;;;;14.68;100.00;102732.00;5203378;28;20402;-82
2021/09/02 02:46:45;;;;;;;26.02;10.02;;;;;;;14.62;100.00;102732.63;5204740;28;20021;-82
2021/09/02 02:49:16;;;;;;;24.33;10.85;;;;;;;14.57;100.00;102734.91;5207211;28;20294;-83
2021/09/02 02:51:46;;;;;;;24.02;11.68;;;;;;;14.54;100.00;102728.94;5194386;28;20483;-82
2021/09/02 02:54:17;;;;;;;23.60;10.55;;;;;;;14.54;100.00;102735.19;5199846;28;20034;-81
2021/09/02 02:56:47;;;;;;;24.35;10.98;;;;;;;14.53;100.00;102736.19;5201504;28;20021;-82
2021/09/02 02:59:18;;;;;;;27.10;9.98;;;;;;;14.50;100.00;102725.66;5206955;28;20091;-82
2021/09/02 03:01:48;;;;;;;27.02;11.45;;;;;;;14.50;100.00;102726.50;5207602;28;20017;-81
2021/09/02 03:04:19;;;;;;;26.35;9.80;;;;;;;14.51;100.00;102724.69;5207668;28;20095;-82
2021/09/02 03:06:49;;;;;;;24.17;10.25;;;;;;;14.47;100.00;102723.25;5207607;28;20032;-82
2021/09/02 03:09:20;;;;;;;26.27;10.52;;;;;;;14.45;100.00;102722.53;5207459;28;20048;-81
2021/09/02 03:11:50;;;;;;;23.45;10.88;;;;;;;14.42;100.00;102726.38;5220035;28;20440;-82
2021/09/02 03:14:20;;;;;;;27.95;11.32;;;;;;;14.41;100.00;102723.84;5207205;28;20105;-82
2021/09/02 03:16:51;;;;;;;21.38;10.98;;;;;;;14.39;100.00;102718.56;5207218;28;20025;-82
2021/09/02 03:19:21;;;;;;;24.08;11.30;;;;;;;14.37;100.00;102719.72;5207153;28;20235;-83
2021/09/02 03:21:52;;;;;;;29.13;11.15;;;;;;;14.37;100.00;102711.63;5189992;28;20083;-82
2021/09/02 03:24:22;;;;;;;28.15;10.80;;;;;;;14.39;100.00;102713.16;5206468;28;20032;-82
2021/09/02 03:26:53;;;;;;;23.60;11.23;;;;;;;14.44;100.00;102710.88;5207234;28;20048;-81
2021/09/02 03:29:23;;;;;;;26.58;11.38;;;;;;;14.38;100.00;102713.31;5206544;28;20032;-81
2021/09/02 03:31:54;;;;;;;26.38;11.20;;;;;;;14.34;100.00;102706.50;5207462;28;20111;-82
2021/09/02 03:34:24;;;;;;;29.10;11.98;;;;;;;14.31;100.00;102714.88;5207192;28;20032;-82
2021/09/02 03:36:55;;;;;;;25.33;12.18;;;;;;;14.27;100.00;102713.50;5189135;28;20378;-82
2021/09/02 03:39:25;;;;;;;26.83;12.68;;;;;;;14.31;100.00;102701.38;5206298;28;20040;-81
2021/09/02 03:41:56;;;;;;;31.25;12.88;;;;;;;14.32;100.00;102703.09;5206567;28;20390;-82
2021/09/02 03:44:27;;;;;;;26.60;12.23;;;;;;;14.40;100.00;102700.50;5206853;28;20049;-83
2021/09/02 03:46:57;;;;;;;29.70;12.13;;;;;;;14.42;100.00;102703.94;5207109;28;20438;-82
2021/09/02 03:49:28;;;;;;;29.50;12.88;;;;;;;14.41;100.00;102703.09;5207402;28;20029;-82
2021/09/02 03:51:58;;;;;;;26.15;11.80;;;;;;;14.38;100.00;102697.13;5206610;28;20368;-82
2021/09/02 03:54:29;;;;;;;34.30;13.35;;;;;;;14.35;100.00;102684.75;5206400;28;20116;-82
2021/09/02 03:56:59;;;;;;;30.13;11.90;;;;;;;14.38;100.00;102689.00;5205989;28;20049;-81
2021/09/02 03:59:30;;;;;;;24.98;11.57;;;;;;;14.42;100.00;102691.28;5205125;28;20075;-82
2021/09/02 04:02:00;;;;;;;31.25;12.45;;;;;;;14.44;100.00;102694.66;5183893;28;20148;-82
2021/09/02 04:04:31;;;;;;;31.48;12.23;;;;;;;14.41;100.00;102694.13;5197364;28;20098;-82
2021/09/02 04:07:01;;;;;;;27.25;12.32;;;;;;;14.38;100.00;102699.81;5206347;28;20095;-81
2021/09/02 04:09:32;;;;;;;27.77;12.40;;;;;;;14.29;100.00;102696.13;5205700;28;20053;-82
2021/09/02 04:12:03;;;;;;;27.30;11.73;;;;;;;14.33;100.00;102699.41;5197980;28;20030;-82
2021/09/02 04:14:34;;;;;;;36.30;13.63;;;;;;;14.25;100.00;102695.56;5200743;28;20037;-83
2021/09/02 04:17:04;;;;;;;28.17;11.95;;;;;;;14.20;100.00;102697.84;5207161;28;20091;-83
2021/09/02 04:19:35;;;;;;;29.75;13.45;;;;;;;14.16;100.00;102704.56;5203634;28;20029;-83
2021/09/02 04:22:05;;;;;;;30.48;12.63;;;;;;;14.15;100.00;102697.44;5178480;28;20037;-82
2021/09/02 04:24:36;;;;;;;28.10;13.25;;;;;;;14.13;100.00;102695.88;5206913;28;20114;-82
2021/09/02 04:27:08;;;;;;;29.95;13.13;;;;;;;14.20;100.00;102697.84;5206956;28;20029;-82
2021/09/02 04:29:38;;;;;;;32.05;13.57;;;;;;;14.12;100.00;102700.44;5206567;28;20021;-82
2021/09/02 04:32:09;;;;;;;35.03;12.98;;;;;;;14.12;100.00;102699.59;5188881;28;20120;-82
2021/09/02 04:34:40;;;;;;;32.28;14.35;;;;;;;14.06;100.00;102700.19;5206656;28;20026;-83
2021/09/02 04:37:10;;;;;;;29.08;12.95;;;;;;;14.22;100.00;102698.56;5206247;28;20029;-82
2021/09/02 04:39:41;;;;;;;31.73;13.75;;;;;;;14.25;100.00;102702.81;5206434;28;20031;-82
2021/09/02 04:42:11;;;;;;;36.78;14.02;;;;;;;14.28;100.00;102696.28;5205740;28;20534;-82
2021/09/02 04:44:42;;;;;;;28.38;13.38;;;;;;;14.28;100.00;102699.84;5203409;28;20471;-82
2021/09/02 04:47:12;;;;;;;27.08;11.90;;;;;;;14.27;100.00;102689.19;5203365;28;20033;-82
2021/09/02 04:49:43;;;;;;;35.17;14.38;;;;;;;14.21;100.00;102690.63;5202886;28;20108;-82
2021/09/02 04:52:13;;;;;;;28.02;12.70;;;;;;;14.19;100.00;102692.59;5203339;28;20056;-82
2021/09/02 04:54:44;;;;;;;31.52;13.18;;;;;;;14.15;100.00;102689.34;5202947;28;20037;-82
2021/09/02 04:57:18;;;;;;;33.17;14.52;;;;;;;14.11;100.00;102690.66;5203459;28;20040;-82
2021/09/02 04:59:49;;;;;;;27.88;11.40;;;;;;;14.12;100.00;102696.91;5202765;28;20021;-82
2021/09/02 05:02:20;;;;;;;32.10;12.20;;;;;;;14.13;100.00;102687.78;5184905;28;20478;-82
2021/09/02 05:04:50;;;;;;;30.10;11.80;;;;;;;14.14;100.00;102681.41;5184821;28;20071;-82
2021/09/02 05:07:21;;;;;;;35.75;12.60;;;;;;;14.11;100.00;102687.94;5189784;28;20033;-82
2021/09/02 05:09:51;;;;;;;28.42;11.85;;;;;;;14.11;100.00;102687.09;5202642;28;20379;-82
2021/09/02 05:12:22;;;;;;;26.73;11.55;;;;;;;14.16;100.00;102692.91;5168808;28;20383;-82
2021/09/02 05:14:52;;;;;;;31.40;11.98;;;;;;;14.12;100.00;102692.34;5202142;28;20079;-82
2021/09/02 05:17:23;;;;;;;29.20;11.93;;;;;;;14.09;100.00;102687.22;5203680;28;20021;-82
2021/09/02 05:19:53;;;;;;;34.80;11.20;;;;;;;14.13;100.00;102685.09;5203467;28;20494;-83
2021/09/02 05:22:24;;;;;;;25.83;11.15;;;;;;;14.18;100.00;102691.75;5203795;28;20430;-82
2021/09/02 05:24:54;;;;;;;28.23;11.45;;;;;;;14.21;100.00;102690.63;5203109;28;20025;-82
2021/09/02 05:27:25;;;;;;;31.75;11.77;;;;;;;14.19;100.00;102696.16;5204086;28;20056;-83
2021/09/02 05:29:55;;;;;;;24.73;11.57;;;;;;;14.19;100.00;102704.25;5200155;28;20021;-83
2021/09/02 05:32:26;;;;;;;27.30;12.40;;;;;;;14.23;100.00;102697.56;5201149;28;20054;-81
2021/09/02 05:34:57;;;;;;;28.05;10.88;;;;;;;14.29;100.00;102697.97;5190132;28;20093;-82
2021/09/02 05:37:27;;;;;;;33.17;12.38;;;;;;;14.29;100.00;102703.38;5207202;28;20028;-82
2021/09/02 05:39:58;;;;;;;28.83;11.77;;;;;;;14.27;100.00;102700.00;5207882;28;20156;-81
2021/09/02 05:42:28;;;;;;;36.45;12.75;;;;;;;14.29;100.00;102701.53;5207004;28;20052;-81
2021/09/02 05:44:59;;;;;;;25.90;11.43;;;;;;;14.31;100.00;102704.06;5190380;28;20022;-82
2021/09/02 05:47:29;;;;;;;24.20;10.90;;;;;;;14.30;100.00;102691.59;5173599;28;20032;-83
2021/09/02 05:50:00;;;;;;;27.67;12.50;;;;;;;14.32;100.00;102695.00;5206965;28;20108;-80
2021/09/02 05:52:31;;;;;;;29.98;11.88;;;;;;;14.31;100.00;102696.84;5206499;28;20021;-81
2021/09/02 05:55:02;;;;;;;29.95;12.77;;;;;;;14.30;100.00;102697.81;5207210;28;20028;-82
2021/09/02 05:57:33;;;;;;;29.77;12.25;;;;;;;14.36;100.00;102697.28;5206776;28;20067;-83
2021/09/02 06:00:04;;;;;;;26.55;12.93;;;;;;;14.49;100.00;102696.97;5204195;28;20041;-84
2021/09/02 06:02:34;;;;;;;35.72;11.98;;;;;;;14.78;100.00;102691.47;5205498;28;20037;-83
2021/09/02 06:05:06;;;;;;;29.70;12.50;;;;;;;15.08;100.00;102693.00;5205439;28;20025;-81
2021/09/02 06:07:36;;;;;;;26.70;12.05;;;;;;;15.09;100.00;102692.00;5206033;28;20398;-82
2021/09/02 06:10:07;;;;;;;31.88;11.52;;;;;;;15.12;100.00;102696.28;5207126;28;20104;-82
2021/09/02 06:12:38;;;;;;;31.65;11.10;;;;;;;15.10;100.00;102691.00;5203687;28;20037;-83
2021/09/02 06:15:10;;;;;;;27.02;10.82;;;;;;;15.03;100.00;102693.47;5190160;28;20083;-83
2021/09/02 06:17:40;;;;;;;30.38;11.43;;;;;;;15.08;100.00;102695.72;5205544;28;20025;-83
2021/09/02 06:20:11;;;;;;;29.13;11.38;;;;;;;15.10;100.00;102691.00;5187008;28;20044;-81
2021/09/02 06:22:42;;;;;;;30.35;11.05;;;;;;;15.20;100.00;102691.78;5204132;28;20100;-83
2021/09/02 06:25:12;;;;;;;24.17;10.07;;;;;;;15.26;100.00;102699.31;5186244;28;20030;-83
2021/09/02 06:27:43;;;;;;;26.30;11.68;;;;;;;15.33;100.00;102693.28;5203223;28;20124;-81
2021/09/02 06:30:14;;;;;;;32.85;11.35;;;;;;;15.53;100.00;102694.84;5204071;28;20052;-83
2021/09/02 06:32:44;;;;;;;19.98;10.30;;;;;;;15.69;100.00;102695.03;5189231;28;20086;-83
2021/09/02 06:35:15;;;;;;;25.42;10.20;;;;;;;15.75;100.00;102698.97;5175886;28;20043;-81
2021/09/02 06:37:45;;;;;;;26.08;10.82;;;;;;;15.86;100.00;102701.41;5201763;28;20036;-82
2021/09/02 06:40:16;;;;;;;30.95;11.70;;;;;;;15.98;100.00;102696.63;5170296;28;20108;-81
2021/09/02 06:42:46;;;;;;;25.90;10.60;;;;;;;15.99;100.00;102701.03;5204785;28;20026;-83
2021/09/02 06:45:17;;;;;;;29.42;11.20;;;;;;;16.15;100.00;102700.31;5205061;28;20056;-84
2021/09/02 06:47:48;;;;;;;32.38;13.30;;;;;;;16.24;100.00;102697.50;5201723;28;20033;-83
2021/09/02 06:50:19;;;;;;;22.60;9.60;;;;;;;16.42;100.00;102699.31;5166889;28;20044;-83
2021/09/02 06:52:49;;;;;;;30.83;11.52;;;;;;;16.51;100.00;102701.91;5202004;28;20398;-85
2021/09/02 06:55:20;;;;;;;23.05;11.23;;;;;;;16.62;100.00;102708.06;5207512;28;20022;-85
2021/09/02 06:57:50;;;;;;;23.67;11.65;;;;;;;16.69;100.00;102709.13;5173079;28;20030;-84
2021/09/02 07:00:21;;;;;;;30.63;13.18;;;;;;;16.74;100.00;102713.06;5204032;28;20410;-82
2021/09/02 07:02:51;;;;;;;28.88;12.00;;;;;;;16.92;100.00;102704.88;5203109;28;20483;-84
2021/09/02 07:05:22;;;;;;;27.58;13.32;;;;;;;16.97;100.00;102709.81;5203407;28;20535;-84
2021/09/02 07:07:54;;;;;;;20.70;11.60;;;;;;;16.95;100.00;102717.22;5204360;28;20033;-82
2021/09/02 07:10:24;;;;;;;29.02;12.68;;;;;;;17.14;100.00;102713.41;5204440;28;20033;-83
2021/09/02 07:12:55;;;;;;;25.33;12.13;;;;;;;17.15;100.00;102713.25;5204541;28;20220;-83
2021/09/02 07:15:25;;;;;;;24.48;12.45;;;;;;;17.18;100.00;102714.78;5190500;28;20029;-84
2021/09/02 07:17:57;;;;;;;32.40;12.88;;;;;;;17.13;100.00;102722.56;5197367;28;20076;-83
2021/09/02 07:20:28;;;;;;;29.98;12.80;;;;;;;17.13;100.00;102712.56;5201403;28;20025;-83
2021/09/02 07:22:59;;;;;;;31.10;12.57;;;;;;;17.13;100.00;102717.16;5188482;28;20044;-84
2021/09/02 07:25:29;;;;;;;29.30;13.77;;;;;;;17.07;100.00;102716.78;5200578;28;20056;-84
2021/09/02 07:28:00;;;;;;;31.15;12.85;;;;;;;17.17;100.00;102713.94;5199900;28;20017;-84
2021/09/02 07:30:30;;;;;;;25.42;13.18;;;;;;;17.24;100.00;102717.69;5200624;28;20021;-83
2021/09/02 07:33:01;;;;;;;27.55;12.20;;;;;;;17.38;100.00;102715.34;5194529;28;20041;-82
2021/09/02 07:35:32;;;;;;;24.17;11.98;;;;;;;17.56;100.00;102714.19;5167155;28;20022;-84
2021/09/02 07:38:03;;;;;;;31.42;12.05;;;;;;;17.61;100.00;102725.38;5191883;28;20021;-83
2021/09/02 07:40:34;;;;;;;30.63;12.40;;;;;;;17.57;100.00;102721.34;5203971;28;20091;-82
2021/09/02 07:43:04;;;;;;;29.25;12.75;;;;;;;17.71;100.00;102719.81;5186830;28;20467;-83
2021/09/02 07:45:35;;;;;;;26.10;11.15;;;;;;;17.96;100.00;102714.44;5186720;28;20124;-85
2021/09/02 07:48:05;;;;;;;29.30;12.13;;;;;;;18.14;100.00;102714.25;5187394;28;20018;-84
2021/09/02 07:50:36;;;;;;;26.73;11.70;;;;;;;18.09;100.00;102717.50;5169814;28;20032;-80
2021/09/02 07:53:06;;;;;;;22.30;11.00;;;;;;;18.06;100.00;102715.94;5202808;28;20088;-84
2021/09/02 07:55:37;;;;;;;22.67;10.98;;;;;;;18.25;100.00;102720.19;5204281;28;20013;-84
2021/09/02 07:58:08;;;;;;;28.27;10.73;;;;;;;18.20;100.00;102719.84;5212344;28;20364;-81
2021/09/02 08:00:38;;;;;;;23.00;10.73;;;;;;;18.33;100.00;102717.47;5200532;28;20343;-83
2021/09/02 08:03:09;;;;;;;22.60;11.45;;;;;;;18.49;100.00;102713.88;5178990;28;20018;-81
2021/09/02 08:05:39;;;;;;;24.65;10.02;;;;;;;18.52;100.00;102715.38;5208870;28;20037;-83
2021/09/02 08:08:16;;;;;;;21.38;9.07;;;;;;;18.59;100.00;102719.97;5197385;28;20674;-87
2021/09/02 08:10:48;;;;;;;24.58;9.23;;;;;;;18.69;100.00;102719.78;5208294;28;20037;-90
2021/09/02 08:13:19;;;;;;;22.33;9.30;;;;;;;18.70;100.00;102721.47;5182894;28;20426;-89
2021/09/02 08:15:49;;;;;;;25.52;9.82;;;;;;;18.87;100.00;102723.09;5206954;28;20029;-85
2021/09/02 08:18:20;;;;;;;23.75;8.65;;;;;;;18.94;100.00;102709.69;5176405;28;20044;-83
2021/09/02 08:20:51;;;;;;;17.45;8.45;;;;;;;19.00;100.00;102719.00;5212265;28;20029;-85
2021/09/02 08:23:21;;;;;;;18.33;8.00;;;;;;;19.07;100.00;102722.69;5188654;28;20029;-84
2021/09/02 08:25:52;;;;;;;27.42;9.98;;;;;;;19.01;100.00;102716.09;5207931;28;20032;-85
2021/09/02 08:28:22;;;;;;;27.73;9.35;;;;;;;19.02;100.00;102711.50;5219147;28;20051;-85
2021/09/02 08:30:53;;;;;;;23.42;7.93;;;;;;;19.26;100.00;102715.97;5203569;28;20029;-85
2021/09/02 08:33:23;;;;;;;26.30;9.50;;;;;;;19.37;100.00;102710.13;5205515;28;20029;-84
2021/09/02 08:35:54;;;;;;;19.35;8.38;;;;;;;19.51;100.00;102719.41;5216505;28;20045;-85
2021/09/02 08:38:24;;;;;;;19.08;8.60;;;;;;;19.74;100.00;102716.72;5214472;28;20371;-85
2021/09/02 08:40:55;;;;;;;18.95;8.52;;;;;;;19.63;100.00;102715.28;5215296;28;20027;-85
2021/09/02 08:43:26;;;;;;;20.92;8.18;;;;;;;19.62;100.00;102713.56;5213151;28;20025;-87
2021/09/02 08:45:56;;;;;;;15.25;8.15;;;;;;;19.61;100.00;102718.16;5209090;28;20025;-83
2021/09/02 08:48:27;;;;;;;21.33;8.85;;;;;;;19.73;100.00;102721.34;5213759;28;20409;-84
2021/09/02 08:50:58;;;;;;;26.83;8.73;;;;;;;19.83;100.00;102719.22;5214198;28;20110;-84
2021/09/02 08:53:28;;;;;;;21.38;9.15;;;;;;;19.67;100.00;102708.41;5214574;28;20033;-82
2021/09/02 08:55:59;;;;;;;26.48;10.18;;;;;;;19.56;100.00;102714.25;5192544;28;20028;-85
2021/09/02 08:58:32;;;;;;;24.98;9.73;;;;;;;19.66;100.00;102715.75;5208657;28;20029;-84
2021/09/02 09:01:02;;;;;;;22.08;10.27;;;;;;;19.79;100.00;102717.88;5191909;28;20025;-87
2021/09/02 09:03:34;;;;;;;21.48;10.90;;;;;;;19.78;100.00;102718.03;5208977;28;20051;-85
2021/09/02 09:06:11;;;;;;;29.83;11.15;;;;;;;19.58;100.00;102720.38;5208265;28;20035;-86
2021/09/02 09:08:42;;;;;;;25.75;10.70;;;;;;;19.54;100.00;102714.44;5216080;28;20113;-84
2021/09/02 09:11:16;;;;;;;22.20;10.98;;;;;;;19.60;100.00;102726.53;5218189;28;20056;-85
2021/09/02 09:13:48;;;;;;;28.55;11.02;;;;;;;19.58;100.00;102721.22;5205168;28;20161;-83
2021/09/02 09:16:41;;;;;;;25.02;10.57;;;;;;;19.57;100.00;102716.78;5216615;28;20028;-84
2021/09/02 09:19:38;;;;;;;27.23;11.43;;;;;;;19.66;100.00;102712.19;5209939;28;20032;-85
2021/09/02 09:22:13;;;;;;;25.23;11.68;;;;;;;19.82;100.00;102714.78;5208223;28;20080;-84
2021/09/02 09:24:46;;;;;;;23.65;11.38;;;;;;;19.75;100.00;102719.25;5214452;28;20029;-85
2021/09/02 09:27:31;;;;;;;31.77;11.50;;;;;;;19.84;100.00;102714.59;5205158;28;20403;-84
2021/09/02 09:30:16;;;;;;;27.10;12.27;;;;;;;19.91;100.00;102707.38;5189362;28;20021;-85
2021/09/02 09:32:53;;;;;;;25.85;12.48;;;;;;;19.99;100.00;102710.06;5183189;28;20030;-84
2021/09/02 09:35:28;;;;;;;27.20;12.25;;;;;;;20.07;100.00;102703.66;5183764;28;20108;-86
2021/09/02 09:38:04;;;;;;;29.50;12.18;;;;;;;20.00;100.00;102695.41;5176880;28;20061;-85
2021/09/02 09:40:44;;;;;;;31.65;12.85;;;;;;;20.18;100.00;102697.78;5181492;28;20060;-84
2021/09/02 09:43:23;;;;;;;33.47;12.25;;;;;;;20.31;100.00;102692.53;5200904;28;20442;-83
2021/09/02 09:45:55;;;;;;;26.73;12.48;;;;;;;20.40;100.00;102696.88;5201444;28;20119;-85
2021/09/02 09:48:30;;;;;;;28.58;11.82;;;;;;;20.29;100.00;102689.16;5202233;28;20424;-85
2021/09/02 09:51:08;;;;;;;25.58;11.43;;;;;;;20.40;100.00;102691.41;5203625;28;20036;-83
2021/09/02 09:53:42;;;;;;;27.02;11.60;;;;;;;20.41;100.00;102690.38;5190140;28;20025;-83
2021/09/02 09:56:14;;;;;;;22.60;11.52;;;;;;;20.48;100.00;102686.94;5202582;28;20033;-84
2021/09/02 09:58:46;;;;;;;27.30;11.68;;;;;;;20.55;100.00;102688.75;5171241;28;20025;-81
2021/09/02 10:01:16;;;;;;;34.80;12.52;;;;;;;20.67;100.00;102689.09;5202688;28;20420;-84
2021/09/02 10:03:51;;;;;;;24.02;11.75;;;;;;;20.56;100.00;102686.84;5201779;28;20371;-83
2021/09/02 10:06:23;;;;;;;;;;;;;;;20.74;100.00;102683.75;5202762;28;20079;-84
2021/09/02 10:08:54;;;;;;;28.73;12.52;;;;;;;20.77;100.00;102686.94;5183850;28;20390;-85
2021/09/02 10:11:25;;;;;;;23.58;11.20;;;;;;;20.76;100.00;102682.53;5183680;28;20052;-84
2021/09/02 10:13:56;;;;;;;24.52;11.88;;;;;;;20.60;100.00;102690.91;5182643;28;20055;-86
2021/09/02 10:16:27;;;;;;;23.17;11.90;;;;;;;20.59;100.00;102679.16;5200455;28;20041;-82
2021/09/02 10:18:58;;;;;;;25.52;11.35;;;;;;;20.50;100.00;102674.81;5202348;28;20106;-83
2021/09/02 10:21:28;;;;;;;25.40;11.43;;;;;;;20.74;100.00;102672.84;5201980;28;20090;-85
2021/09/02 10:24:31;;;;;;;32.88;12.88;;;;;;;21.03;100.00;102674.66;5202777;28;20112;-84
2021/09/02 10:27:22;;;;;;;28.67;12.27;;;;;;;21.35;100.00;102667.94;5191591;28;20044;-85
2021/09/02 10:29:53;;;;;;;23.13;11.48;;;;;;;21.49;100.00;102666.19;5203745;28;20096;-84
2021/09/02 10:32:24;;;;;;;28.63;12.27;;;;;;;21.70;100.00;102663.47;5202936;28;20028;-83
2021/09/02 10:35:02;;;;;;;28.30;11.88;;;;;;;21.90;100.00;102656.28;5202294;28;20030;-85
2021/09/02 10:37:33;;;;;;;26.05;10.95;;;;;;;21.71;100.00;102660.53;5202498;28;20053;-85
2021/09/02 10:40:15;;;;;;;21.83;9.75;;;;;;;21.91;100.00;102654.38;5192162;28;20495;-83
2021/09/02 10:42:47;;;;;;;26.23;9.68;;;;;;;22.16;100.00;102654.81;5204400;28;20533;-84
2021/09/02 10:45:25;;;;;;;25.10;10.75;;;;;;;22.71;100.00;102650.31;5170920;28;20036;-84
2021/09/02 10:48:00;;;;;;;30.90;11.57;;;;;;;22.81;100.00;102648.03;5189689;28;20036;-84
2021/09/02 10:50:36;;;;;;;24.38;11.10;;;;;;;22.72;100.00;102646.50;5187381;28;20021;-85
2021/09/02 10:53:09;;;;;;;23.05;11.35;;;;;;;23.02;100.00;102636.13;5200540;28;20029;-85
2021/09/02 10:55:47;;;;;;;24.25;10.70;;;;;;;22.85;93.74;102627.44;5200524;28;20483;-83
2021/09/02 10:58:37;;;;;;;21.35;11.43;;;;;;;22.49;93.03;102634.00;5183538;28;20036;-84
2021/09/02 11:01:23;;;;;;;23.60;10.00;;;;;;;22.03;100.00;102639.13;5182495;28;20052;-84
2021/09/02 11:03:56;;;;;;;21.17;10.93;;;;;;;21.93;100.00;102636.75;5176387;28;20100;-83
2021/09/02 11:06:27;;;;;;;21.15;10.57;;;;;;;22.01;100.00;102630.28;5180057;28;20018;-81
2021/09/02 11:09:00;;;;;;;23.90;12.25;;;;;;;21.90;100.00;102631.69;5195522;28;20032;-83
2021/09/02 11:11:31;;;;;;;19.35;10.95;;;;;;;21.80;100.00;102628.47;5184080;28;20053;-82
2021/09/02 11:14:01;;;;;;;23.77;10.80;;;;;;;21.75;100.00;102625.47;5196763;28;20050;-83
2021/09/02 11:16:35;;;;;;;26.30;12.25;;;;;;;22.04;100.00;102623.56;5201380;28;20057;-83
2021/09/02 11:19:06;;;;;;;24.90;12.23;;;;;;;22.27;100.00;102628.81;5204656;28;20026;-84
2021/09/02 11:21:36;;;;;;;21.67;10.57;;;;;;;22.74;97.07;102631.59;5186930;28;20097;-83
2021/09/02 11:24:08;;;;;;;25.73;10.13;;;;;;;22.95;100.00;102627.91;5186939;28;20017;-82
2021/09/02 11:26:43;;;;;;;20.77;10.35;;;;;;;23.19;100.00;102625.63;5204035;28;20040;-83